Time;durP1;ratioP1;P1;durP2;ratioP2;P2;SDS_P1;SDS_P2;PMS_P1;PMS_P2;Temp;Humidity;BMP_temperature;BMP_pressure;BME280_temperature;BME280_humidity;BME280_pressure;Samples;Min_cycle;Max_cycle;Signal;HPM_P1;HPM_P2
2022/10/02 00:02:12;;;;;;;0.50;0.50;;;;;;;10.84;100.00;98235.75;4959285;28;20118;-84
2022/10/02 00:05:04;;;;;;;0.60;0.60;;;;;;;10.83;99.79;98234.09;4955819;28;20101;-84
2022/10/02 00:07:53;;;;;;;0.50;0.50;;;;;;;10.83;98.81;98228.69;4956278;28;20149;-83
2022/10/02 00:10:40;;;;;;;0.50;0.50;;;;;;;10.84;97.63;98225.75;4971927;28;20066;-83
2022/10/02 00:13:13;;;;;;;0.50;0.50;;;;;;;10.82;95.93;98229.78;4984013;28;20062;-82
2022/10/02 00:15:41;;;;;;;0.50;0.50;;;;;;;10.80;95.63;98229.25;4992277;28;20400;-82
2022/10/02 00:18:23;;;;;;;0.50;0.50;;;;;;;10.81;95.48;98231.69;4993422;28;20421;-83
2022/10/02 00:21:10;;;;;;;0.50;0.50;;;;;;;10.84;94.80;98224.94;4993227;28;20046;-83
2022/10/02 00:23:56;;;;;;;0.60;0.60;;;;;;;10.84;94.22;98243.84;4992631;28;20224;-83
2022/10/02 00:27:01;;;;;;;0.50;0.50;;;;;;;10.79;94.26;98238.44;4992178;28;20064;-83
2022/10/02 00:29:42;;;;;;;0.60;0.60;;;;;;;10.76;94.73;98236.22;4955902;28;20497;-83
2022/10/02 00:32:12;;;;;;;0.50;0.50;;;;;;;10.74;94.92;98233.00;4975317;28;20070;-83
2022/10/02 00:35:03;;;;;;;0.60;0.60;;;;;;;10.73;94.87;98232.19;4992489;28;20058;-83
2022/10/02 00:37:47;;;;;;;0.60;0.60;;;;;;;10.72;94.33;98237.84;4990868;28;20042;-84
2022/10/02 00:40:39;;;;;;;0.55;0.55;;;;;;;10.68;94.05;98237.56;4993058;28;20069;-83
2022/10/02 00:43:18;;;;;;;0.50;0.50;;;;;;;10.63;93.75;98232.13;4992018;28;20050;-83
2022/10/02 00:46:21;;;;;;;0.50;0.50;;;;;;;10.62;93.90;98244.81;4992293;28;20416;-83
2022/10/02 00:49:30;;;;;;;0.50;0.50;;;;;;;10.61;93.41;98239.72;4990436;28;20109;-84
2022/10/02 00:52:22;;;;;;;0.60;0.60;;;;;;;10.54;93.68;98231.84;4988824;28;20061;-83
2022/10/02 00:55:20;;;;;;;0.50;0.50;;;;;;;10.53;94.15;98237.50;4995451;28;20060;-83
2022/10/02 00:57:55;;;;;;;0.60;0.60;;;;;;;10.54;94.10;98253.44;4976807;28;20492;-82
2022/10/02 01:00:23;;;;;;;0.60;0.60;;;;;;;10.64;91.88;98241.88;4993634;28;20078;-84
2022/10/02 01:03:21;;;;;;;0.50;0.50;;;;;;;10.63;91.23;98241.06;4993729;28;20077;-85
2022/10/02 01:05:49;;;;;;;0.50;0.50;;;;;;;10.58;90.94;98253.69;4992746;28;20065;-82
2022/10/02 01:08:16;;;;;;;0.50;0.50;;;;;;;10.53;90.96;98241.03;4975449;28;20512;-84
2022/10/02 01:10:44;;;;;;;0.50;0.50;;;;;;;10.46;91.16;98250.41;4992419;28;20117;-83
2022/10/02 01:13:12;;;;;;;0.60;0.60;;;;;;;10.41;90.33;98264.69;4990979;28;20089;-84
2022/10/02 01:15:51;;;;;;;0.55;0.55;;;;;;;10.34;89.95;98245.22;4990963;28;20057;-84
2022/10/02 01:18:19;;;;;;;0.50;0.50;;;;;;;10.26;90.39;98243.00;4990500;28;20050;-85
2022/10/02 01:20:52;;;;;;;0.50;0.50;;;;;;;10.25;90.22;98244.88;4990077;28;20069;-84
2022/10/02 01:23:38;;;;;;;0.52;0.52;;;;;;;10.14;89.92;98235.91;4991855;28;20064;-82
2022/10/02 01:26:06;;;;;;;0.50;0.50;;;;;;;10.04;90.29;98240.44;4974766;28;20576;-82
2022/10/02 01:28:33;;;;;;;0.60;0.60;;;;;;;9.96;90.12;98247.91;4991864;28;20047;-82
2022/10/02 01:31:09;;;;;;;0.60;0.60;;;;;;;9.91;89.69;98247.09;4992160;28;20050;-84
2022/10/02 01:33:40;;;;;;;0.50;0.50;;;;;;;9.85;89.77;98251.63;4991789;28;20184;-83
2022/10/02 01:36:11;;;;;;;0.55;0.55;;;;;;;9.79;90.29;98260.72;4992066;28;20053;-82
2022/10/02 01:38:40;;;;;;;0.60;0.60;;;;;;;9.73;90.95;98262.56;4974066;28;20456;-82
2022/10/02 01:41:11;;;;;;;0.60;0.60;;;;;;;9.61;91.80;98266.50;4991624;28;20134;-82
2022/10/02 01:43:42;;;;;;;0.60;0.60;;;;;;;9.60;92.33;98267.59;4991595;28;20108;-82
2022/10/02 01:46:25;;;;;;;0.52;0.52;;;;;;;9.54;92.74;98264.84;4991995;28;20042;-81
2022/10/02 01:49:16;;;;;;;0.60;0.60;;;;;;;9.50;93.38;98269.09;4991746;28;20473;-80
2022/10/02 01:52:05;;;;;;;0.60;0.60;;;;;;;9.50;93.50;98271.81;4991894;28;20046;-82
2022/10/02 01:55:01;;;;;;;0.50;0.50;;;;;;;9.52;93.05;98275.06;4991381;28;20042;-83
2022/10/02 01:57:50;;;;;;;0.60;0.60;;;;;;;9.46;93.36;98267.16;4949680;29;20423;-81
2022/10/02 02:00:25;;;;;;;0.57;0.57;;;;;;;9.33;93.61;98260.31;4950521;29;20051;-83
2022/10/02 02:02:57;;;;;;;0.60;0.60;;;;;;;9.24;93.93;98269.91;4950280;29;20146;-82
2022/10/02 02:05:33;;;;;;;0.60;0.60;;;;;;;9.20;94.29;98269.63;4934510;29;20057;-83
2022/10/02 02:08:08;;;;;;;0.60;0.60;;;;;;;9.24;94.35;98262.66;4950195;29;20058;-83
2022/10/02 02:10:36;;;;;;;0.60;0.60;;;;;;;9.30;94.09;98263.53;4949508;29;20059;-80
2022/10/02 02:13:19;;;;;;;0.60;0.60;;;;;;;9.37;93.07;98272.22;4933946;29;20065;-83
2022/10/02 02:16:20;;;;;;;0.50;0.50;;;;;;;9.43;91.61;98281.97;4950285;29;20083;-83
2022/10/02 02:19:02;;;;;;;0.50;0.50;;;;;;;9.46;90.82;98275.25;4950385;29;20106;-83
2022/10/02 02:21:34;;;;;;;0.60;0.60;;;;;;;9.47;90.44;98261.53;4950237;29;20087;-81
2022/10/02 02:24:05;;;;;;;0.50;0.50;;;;;;;9.47;90.43;98263.41;4950393;29;20400;-83
2022/10/02 02:26:32;;;;;;;0.60;0.60;;;;;;;9.46;90.78;98269.88;4950168;29;20467;-83
2022/10/02 02:29:03;;;;;;;0.50;0.50;;;;;;;9.46;90.65;98264.47;4950341;29;20070;-82
2022/10/02 02:31:46;;;;;;;0.60;0.60;;;;;;;9.42;90.61;98269.56;4950168;29;20130;-82
2022/10/02 02:34:18;;;;;;;0.60;0.60;;;;;;;9.42;90.63;98263.34;4970006;28;20552;-83
2022/10/02 02:36:50;;;;;;;0.52;0.52;;;;;;;9.40;90.70;98260.94;4991171;28;20050;-83
2022/10/02 02:39:25;;;;;;;0.60;0.60;;;;;;;9.41;90.70;98270.63;4990356;28;20054;-81
2022/10/02 02:42:01;;;;;;;0.60;0.60;;;;;;;9.40;90.56;98274.41;4991708;28;20046;-84
2022/10/02 02:44:51;;;;;;;0.50;0.50;;;;;;;9.39;90.97;98261.97;4990986;28;20449;-82
2022/10/02 02:47:24;;;;;;;0.60;0.60;;;;;;;9.34;91.30;98267.31;4991400;28;20509;-83
2022/10/02 02:49:58;;;;;;;0.52;0.52;;;;;;;9.37;90.97;98266.84;4991388;28;20048;-84
2022/10/02 02:52:30;;;;;;;0.68;0.68;;;;;;;9.37;91.28;98261.44;4991034;28;20054;-83
2022/10/02 02:55:05;;;;;;;0.60;0.60;;;;;;;9.39;90.98;98266.56;4990935;28;20508;-84
2022/10/02 02:57:40;;;;;;;0.55;0.55;;;;;;;9.38;90.64;98267.63;4977551;28;20062;-85
2022/10/02 03:00:07;;;;;;;0.50;0.50;;;;;;;9.35;90.46;98268.97;4994636;28;20555;-84
2022/10/02 03:02:35;;;;;;;0.60;0.60;;;;;;;9.36;90.32;98265.19;4994664;28;20046;-84
2022/10/02 03:05:14;;;;;;;0.50;0.50;;;;;;;9.37;90.51;98276.78;4993609;28;20046;-83
2022/10/02 03:08:01;;;;;;;0.60;0.60;;;;;;;9.37;90.45;98284.84;4994490;28;20386;-83
2022/10/02 03:10:49;;;;;;;0.52;0.52;;;;;;;9.37;90.19;98280.31;4994574;28;20129;-84
2022/10/02 03:13:50;;;;;;;0.60;0.60;;;;;;;9.35;90.38;98276.25;4992789;28;20501;-83
2022/10/02 03:16:19;;;;;;;0.60;0.60;;;;;;;9.29;90.70;98276.19;4993303;28;20065;-82
2022/10/02 03:18:57;;;;;;;0.60;0.60;;;;;;;9.32;91.08;98266.78;4992964;28;20525;-82
2022/10/02 03:21:35;;;;;;;0.60;0.60;;;;;;;9.30;91.39;98280.50;4993205;28;20666;-83
2022/10/02 03:24:16;;;;;;;0.60;0.60;;;;;;;9.32;91.21;98280.25;4993447;28;20101;-82
2022/10/02 03:26:49;;;;;;;0.60;0.60;;;;;;;9.29;91.52;98281.56;4993128;28;20056;-84
2022/10/02 03:29:22;;;;;;;0.60;0.60;;;;;;;9.26;91.99;98286.63;4983857;28;20074;-82
2022/10/02 03:31:49;;;;;;;0.60;0.60;;;;;;;9.22;92.29;98283.66;4957351;28;20079;-83
2022/10/02 03:34:17;;;;;;;0.57;0.57;;;;;;;9.22;92.68;98285.53;4957419;28;20051;-83
2022/10/02 03:36:45;;;;;;;0.60;0.60;;;;;;;9.22;92.71;98280.94;4956890;28;20051;-84
2022/10/02 03:39:13;;;;;;;0.60;0.60;;;;;;;9.22;92.82;98286.34;4957346;28;20109;-83
2022/10/02 03:41:51;;;;;;;0.52;0.52;;;;;;;9.23;92.77;98287.16;4973826;28;20144;-82
2022/10/02 03:44:18;;;;;;;0.60;0.60;;;;;;;9.21;92.70;98275.81;4974543;28;20415;-84
2022/10/02 03:46:45;;;;;;;0.60;0.60;;;;;;;9.21;92.72;98267.72;4974259;28;20050;-82
2022/10/02 03:49:12;;;;;;;0.50;0.50;;;;;;;9.25;92.03;98263.47;4974300;28;20063;-82
2022/10/02 03:51:39;;;;;;;0.60;0.60;;;;;;;9.28;91.53;98279.13;4974189;28;20051;-84
2022/10/02 03:54:17;;;;;;;0.60;0.60;;;;;;;9.25;91.68;98274.25;4974317;28;20049;-82
2022/10/02 03:56:50;;;;;;;0.60;0.60;;;;;;;9.20;92.10;98277.69;4974080;28;20089;-84
2022/10/02 03:59:45;;;;;;;0.60;0.60;;;;;;;9.17;92.36;98278.22;4974032;28;20050;-83
2022/10/02 04:02:37;;;;;;;0.60;0.60;;;;;;;9.13;92.92;98278.97;4973971;28;20580;-82
2022/10/02 04:05:16;;;;;;;0.60;0.60;;;;;;;9.09;92.48;98290.25;4972760;28;20050;-84
2022/10/02 04:07:45;;;;;;;0.60;0.60;;;;;;;9.05;92.11;98283.72;4972779;28;20078;-83
2022/10/02 04:10:27;;;;;;;0.60;0.60;;;;;;;9.05;91.29;98285.59;4957730;28;20058;-82
2022/10/02 04:13:13;;;;;;;0.60;0.60;;;;;;;9.04;89.13;98292.88;4973658;28;20109;-82
2022/10/02 04:15:55;;;;;;;0.60;0.60;;;;;;;9.03;87.45;98302.00;4972268;28;20066;-83
2022/10/02 04:18:31;;;;;;;0.60;0.60;;;;;;;8.98;86.89;98287.66;4972802;28;20055;-83
2022/10/02 04:21:04;;;;;;;0.70;0.70;;;;;;;8.93;86.53;98280.34;4973437;28;20051;-84
2022/10/02 04:23:43;;;;;;;0.50;0.50;;;;;;;8.90;86.82;98283.53;4973883;28;20538;-82
2022/10/02 04:26:17;;;;;;;0.60;0.60;;;;;;;8.87;87.25;98289.44;4968805;28;20050;-83
2022/10/02 04:28:51;;;;;;;0.70;0.70;;;;;;;8.86;86.64;98298.56;4975043;28;20584;-83
2022/10/02 04:31:18;;;;;;;;;;;;;;;8.82;86.43;98302.81;4957066;28;20077;-82
2022/10/02 04:33:45;;;;;;;0.60;0.60;;;;;;;8.76;86.96;98303.81;4973732;28;19996;-84
2022/10/02 04:36:41;;;;;;;0.60;0.60;;;;;;;8.79;87.33;98303.34;4973466;28;20506;-83
2022/10/02 04:39:21;;;;;;;0.70;0.70;;;;;;;8.76;87.37;98307.34;4968931;28;20061;-83
2022/10/02 04:42:01;;;;;;;0.60;0.60;;;;;;;8.75;87.12;98304.88;4989348;28;20138;-83
2022/10/02 04:44:41;;;;;;;0.70;0.70;;;;;;;8.72;86.58;98302.69;4991980;28;20105;-83
2022/10/02 04:47:14;;;;;;;0.60;0.60;;;;;;;8.68;86.93;98302.38;4993174;28;20062;-84
2022/10/02 04:50:26;;;;;;;0.60;0.60;;;;;;;8.68;86.65;98292.44;4992642;28;20082;-84
2022/10/02 04:53:27;;;;;;;0.60;0.60;;;;;;;8.64;86.51;98285.13;4984787;28;20051;-83
2022/10/02 04:55:59;;;;;;;0.60;0.60;;;;;;;8.63;86.50;98295.06;4987572;28;20075;-84
2022/10/02 04:58:33;;;;;;;0.60;0.60;;;;;;;8.65;86.66;98282.16;4991841;28;20137;-81
2022/10/02 05:01:30;;;;;;;0.60;0.60;;;;;;;8.63;86.57;98287.00;4986209;28;20073;-82
2022/10/02 05:04:23;;;;;;;0.63;0.63;;;;;;;8.60;86.68;98278.59;4989233;28;20124;-81
2022/10/02 05:07:03;;;;;;;0.60;0.60;;;;;;;8.59;86.92;98288.56;4987516;28;20065;-80
2022/10/02 05:10:03;;;;;;;0.70;0.70;;;;;;;8.63;86.72;98292.38;4984153;28;20074;-84
2022/10/02 05:12:52;;;;;;;0.60;0.60;;;;;;;8.64;86.79;98301.25;4985597;28;20050;-81
2022/10/02 05:15:45;;;;;;;0.70;0.70;;;;;;;8.65;86.72;98297.50;4992669;28;20046;-80
2022/10/02 05:18:19;;;;;;;0.60;0.60;;;;;;;8.62;87.09;98304.19;4992016;28;20053;-81
2022/10/02 05:21:05;;;;;;;0.70;0.70;;;;;;;8.63;87.58;98295.06;4990178;28;20053;-81
2022/10/02 05:23:41;;;;;;;0.70;0.70;;;;;;;8.62;87.52;98300.69;4988094;28;20457;-82
2022/10/02 05:26:17;;;;;;;0.60;0.60;;;;;;;8.62;87.66;98296.13;4988900;28;20054;-83
2022/10/02 05:28:53;;;;;;;0.60;0.60;;;;;;;8.59;87.85;98296.63;4970922;28;20054;-83
2022/10/02 05:31:55;;;;;;;0.60;0.60;;;;;;;8.60;88.17;98295.53;4971282;28;20477;-85
2022/10/02 05:34:48;;;;;;;0.60;0.60;;;;;;;8.64;88.23;98298.56;4987783;28;20050;-85
2022/10/02 05:37:44;;;;;;;0.60;0.60;;;;;;;8.64;87.95;98301.25;4988690;28;20605;-83
2022/10/02 05:40:27;;;;;;;0.63;0.63;;;;;;;8.61;87.96;98317.91;4988150;28;20065;-83
2022/10/02 05:43:05;;;;;;;0.60;0.60;;;;;;;8.59;88.11;98303.88;4986804;28;20112;-83
2022/10/02 05:45:38;;;;;;;0.70;0.70;;;;;;;8.59;88.02;98303.88;4979506;28;20532;-82
2022/10/02 05:48:25;;;;;;;0.70;0.70;;;;;;;8.64;88.06;98303.94;4987770;28;20062;-82
2022/10/02 05:50:59;;;;;;;0.63;0.63;;;;;;;8.61;88.19;98299.88;4970858;28;20056;-82
2022/10/02 05:53:35;;;;;;;0.70;0.70;;;;;;;8.60;87.99;98302.81;4987206;28;20555;-82
2022/10/02 05:56:15;;;;;;;0.60;0.60;;;;;;;8.60;87.78;98292.84;4986735;28;20454;-79
2022/10/02 05:58:46;;;;;;;0.70;0.70;;;;;;;8.62;88.00;98309.56;4986628;28;20058;-80
2022/10/02 06:01:33;;;;;;;0.63;0.63;;;;;;;8.62;87.39;98304.19;4972822;28;20053;-82
2022/10/02 06:04:26;;;;;;;0.70;0.70;;;;;;;8.61;87.50;98297.19;4984581;28;20054;-82
2022/10/02 06:06:58;;;;;;;0.70;0.70;;;;;;;8.62;87.66;98298.81;4986342;28;20521;-82
2022/10/02 06:09:36;;;;;;;0.68;0.68;;;;;;;8.60;86.63;98295.53;4970093;28;20047;-81
2022/10/02 06:12:09;;;;;;;0.60;0.60;;;;;;;8.60;86.94;98298.22;4985099;28;20054;-82
2022/10/02 06:15:06;;;;;;;0.63;0.63;;;;;;;8.63;87.20;98302.31;4983679;28;20563;-81
2022/10/02 06:17:46;;;;;;;0.60;0.60;;;;;;;8.59;86.68;98314.63;4973577;28;20145;-81
2022/10/02 06:20:20;;;;;;;0.70;0.70;;;;;;;8.57;86.94;98306.81;4970151;28;20625;-82
2022/10/02 06:23:01;;;;;;;0.70;0.70;;;;;;;8.59;86.24;98323.50;4986559;28;20468;-83
2022/10/02 06:25:58;;;;;;;0.60;0.60;;;;;;;8.54;86.09;98320.75;4971053;28;20420;-84
2022/10/02 06:28:38;;;;;;;0.68;0.68;;;;;;;8.52;86.20;98330.94;4988835;28;20529;-82
2022/10/02 06:31:32;;;;;;;0.70;0.70;;;;;;;8.53;86.30;98321.00;4991399;28;20052;-85
2022/10/02 06:34:00;;;;;;;0.70;0.70;;;;;;;8.52;85.42;98316.69;4991432;28;20136;-80
2022/10/02 06:36:47;;;;;;;0.63;0.63;;;;;;;8.54;85.04;98323.44;4975589;28;20059;-82
2022/10/02 06:39:41;;;;;;;0.70;0.70;;;;;;;8.51;84.54;98329.31;4992143;28;20050;-80
2022/10/02 06:42:28;;;;;;;0.70;0.70;;;;;;;8.52;84.34;98324.75;4992117;28;20521;-84
2022/10/02 06:45:14;;;;;;;0.70;0.70;;;;;;;8.53;84.44;98321.78;4990841;28;20054;-85
2022/10/02 06:48:21;;;;;;;0.70;0.70;;;;;;;8.62;84.32;98320.31;4988906;28;20601;-86
2022/10/02 06:51:09;;;;;;;0.75;0.75;;;;;;;8.65;83.54;98324.38;4992850;28;20382;-84
2022/10/02 06:53:49;;;;;;;0.60;0.60;;;;;;;8.66;83.43;98326.03;4992807;28;20062;-84
2022/10/02 06:56:42;;;;;;;0.70;0.70;;;;;;;8.69;83.30;98336.28;4991204;28;20042;-84
2022/10/02 06:59:33;;;;;;;0.70;0.70;;;;;;;8.70;83.00;98318.28;4989661;28;20097;-84
2022/10/02 07:02:19;;;;;;;0.70;0.70;;;;;;;8.67;82.66;98330.34;4986484;28;20505;-84
2022/10/02 07:04:56;;;;;;;0.63;0.63;;;;;;;8.59;82.53;98334.28;4991194;28;20500;-84
2022/10/02 07:07:41;;;;;;;0.68;0.68;;;;;;;8.59;82.81;98336.97;4990852;28;20141;-82
2022/10/02 07:10:35;;;;;;;0.80;0.80;;;;;;;8.52;82.56;98343.56;4990158;28;20082;-82
2022/10/02 07:13:25;;;;;;;0.70;0.70;;;;;;;8.45;83.29;98338.38;4990363;28;20069;-83
2022/10/02 07:16:07;;;;;;;0.70;0.70;;;;;;;8.43;83.71;98335.94;4988323;28;20062;-84
2022/10/02 07:19:20;;;;;;;0.70;0.70;;;;;;;8.45;83.70;98341.06;4990358;28;20046;-82
2022/10/02 07:22:24;;;;;;;0.70;0.70;;;;;;;8.44;83.84;98334.88;4640838;28;10000657;-83
2022/10/02 07:25:55;;;;;;;0.70;0.70;;;;;;;8.36;84.33;98332.56;4991129;28;20061;-89
2022/10/02 07:28:56;;;;;;;0.60;0.60;;;;;;;8.36;85.12;98329.06;4985393;28;20054;-83
2022/10/02 07:32:21;;;;;;;0.63;0.63;;;;;;;8.34;85.10;98337.38;4975773;28;20098;-84
2022/10/02 07:35:18;;;;;;;0.60;0.60;;;;;;;8.36;85.58;98337.94;4926376;29;20296;-84
2022/10/02 07:38:13;;;;;;;0.68;0.68;;;;;;;8.37;85.60;98339.56;4930878;29;20400;-82
2022/10/02 07:40:58;;;;;;;0.70;0.70;;;;;;;8.36;85.64;98339.81;4920187;29;20052;-82
2022/10/02 07:43:38;;;;;;;0.70;0.70;;;;;;;8.35;85.78;98335.50;4943266;29;20098;-82
2022/10/02 07:46:27;;;;;;;0.70;0.70;;;;;;;8.34;86.34;98334.69;4930093;29;20059;-84
2022/10/02 07:49:08;;;;;;;0.70;0.70;;;;;;;8.37;86.72;98336.88;4924037;29;20052;-81
2022/10/02 07:51:46;;;;;;;0.70;0.70;;;;;;;8.40;86.49;98349.03;4927049;29;20055;-83
2022/10/02 07:54:51;;;;;;;0.70;0.70;;;;;;;8.51;85.79;98353.53;4929500;29;20124;-84
2022/10/02 07:57:48;;;;;;;0.70;0.70;;;;;;;8.66;84.84;98336.78;4929507;29;20632;-82
2022/10/02 08:00:24;;;;;;;0.70;0.70;;;;;;;8.77;84.03;98332.34;4930740;29;20064;-81
2022/10/02 08:03:24;;;;;;;0.90;0.90;;;;;;;8.93;82.95;98347.63;4930318;29;20060;-83
2022/10/02 08:05:58;;;;;;;0.80;0.80;;;;;;;9.87;79.01;98341.09;4894162;29;20091;-82
2022/10/02 08:08:29;;;;;;;0.80;0.80;;;;;;;9.55;79.39;98349.16;4911708;29;20111;-81
2022/10/02 08:11:36;;;;;;;0.70;0.70;;;;;;;10.23;76.87;98348.66;4910033;29;20114;-82
2022/10/02 08:14:37;;;;;;;0.80;0.80;;;;;;;9.88;77.77;98342.75;4902809;29;20063;-82
2022/10/02 08:17:16;;;;;;;1.00;1.00;;;;;;;10.43;75.07;98346.16;4871514;29;20068;-80
2022/10/02 08:19:49;;;;;;;0.90;0.90;;;;;;;11.21;72.47;98349.00;4872533;29;20139;-81
2022/10/02 08:22:25;;;;;;;0.90;0.90;;;;;;;11.65;70.28;98343.19;4872646;29;20105;-82
2022/10/02 08:25:01;;;;;;;0.90;0.90;;;;;;;12.33;67.66;98355.69;4857379;29;20048;-82
2022/10/02 08:27:47;;;;;;;1.00;1.00;;;;;;;11.88;66.65;98341.09;4866409;29;20117;-84
2022/10/02 08:30:15;;;;;;;0.90;0.90;;;;;;;11.90;66.79;98338.91;4872747;29;20117;-82
2022/10/02 08:32:42;;;;;;;0.77;0.77;;;;;;;11.57;67.92;98341.00;4872172;29;20045;-82
2022/10/02 08:35:11;;;;;;;0.80;0.80;;;;;;;11.34;67.43;98349.56;4871215;29;20060;-80
2022/10/02 08:38:11;;;;;;;0.70;0.70;;;;;;;11.21;68.21;98345.47;4872502;29;20155;-81
2022/10/02 08:41:03;;;;;;;0.70;0.70;;;;;;;11.06;69.10;98341.66;4872165;29;20423;-83
2022/10/02 08:43:49;;;;;;;0.70;0.70;;;;;;;10.94;69.87;98341.06;4909412;29;20048;-83
2022/10/02 08:46:25;;;;;;;0.70;0.70;;;;;;;10.75;71.15;98345.28;4900192;29;20049;-81
2022/10/02 08:49:20;;;;;;;0.70;0.70;;;;;;;10.69;70.38;98344.44;4908898;29;20055;-83
2022/10/02 08:52:09;;;;;;;0.70;0.70;;;;;;;10.28;72.15;98344.19;4897770;29;20049;-81
2022/10/02 08:55:03;;;;;;;0.70;0.70;;;;;;;10.31;72.75;98340.16;4956662;28;20518;-81
2022/10/02 08:57:46;;;;;;;0.70;0.70;;;;;;;10.24;72.41;98351.13;4965974;28;20076;-82
2022/10/02 09:00:20;;;;;;;0.70;0.70;;;;;;;10.14;73.09;98348.34;4963219;28;20677;-84
2022/10/02 09:02:48;;;;;;;0.68;0.68;;;;;;;10.17;73.43;98347.81;4968116;28;20137;-81
2022/10/02 09:05:38;;;;;;;0.60;0.60;;;;;;;10.36;72.88;98353.66;4966752;28;20047;-81
2022/10/02 09:08:25;;;;;;;0.60;0.60;;;;;;;10.58;72.75;98350.84;4971677;28;20054;-82
2022/10/02 09:11:02;;;;;;;0.60;0.60;;;;;;;10.45;71.04;98338.59;4970824;28;20081;-83
2022/10/02 09:13:39;;;;;;;0.60;0.60;;;;;;;10.51;71.63;98336.78;4984678;28;20069;-82
2022/10/02 09:16:27;;;;;;;0.60;0.60;;;;;;;10.63;71.66;98340.06;4992068;28;20136;-81
2022/10/02 09:19:06;;;;;;;0.60;0.60;;;;;;;10.77;71.45;98335.84;4975359;28;20054;-82
2022/10/02 09:21:53;;;;;;;0.60;0.60;;;;;;;10.67;70.34;98341.19;4992083;28;20073;-83
2022/10/02 09:24:45;;;;;;;0.60;0.60;;;;;;;10.53;70.58;98337.31;4969351;28;20046;-83
2022/10/02 09:27:41;;;;;;;0.60;0.60;;;;;;;10.41;70.64;98346.41;4974569;28;20046;-82
2022/10/02 09:30:19;;;;;;;0.68;0.68;;;;;;;10.31;72.05;98343.66;4972887;28;20077;-81
2022/10/02 09:33:02;;;;;;;0.60;0.60;;;;;;;10.44;71.87;98350.50;4989646;28;20544;-82
2022/10/02 09:36:09;;;;;;;0.60;0.60;;;;;;;10.74;71.72;98352.56;4991352;28;20047;-83
2022/10/02 09:39:08;;;;;;;0.60;0.60;;;;;;;10.82;70.27;98346.66;4984437;28;20058;-82
2022/10/02 09:42:07;;;;;;;0.60;0.60;;;;;;;10.76;70.00;98365.78;4987368;28;20055;-82
2022/10/02 09:44:57;;;;;;;0.60;0.60;;;;;;;10.70;69.48;98372.22;4989192;28;20425;-83
2022/10/02 09:47:35;;;;;;;0.63;0.63;;;;;;;10.55;69.88;98378.34;4986497;28;20493;-84
2022/10/02 09:50:09;;;;;;;0.60;0.60;;;;;;;10.41;70.40;98370.69;4974365;28;20050;-82
2022/10/02 09:53:04;;;;;;;0.70;0.70;;;;;;;10.48;70.48;98367.78;4964805;28;20124;-84
2022/10/02 09:55:53;;;;;;;0.70;0.70;;;;;;;10.55;69.83;98362.16;4988410;28;20061;-84
2022/10/02 09:58:26;;;;;;;0.60;0.60;;;;;;;10.53;70.53;98367.81;4986717;28;20061;-83
2022/10/02 10:01:21;;;;;;;0.70;0.70;;;;;;;10.51;70.18;98355.66;4987601;28;20077;-84
2022/10/02 10:04:19;;;;;;;0.68;0.68;;;;;;;10.71;70.21;98352.25;4990727;28;20054;-84
2022/10/02 10:06:54;;;;;;;0.70;0.70;;;;;;;10.80;69.26;98343.41;4990301;28;20062;-83
2022/10/02 10:09:40;;;;;;;0.70;0.70;;;;;;;11.22;68.29;98345.22;4990302;28;20057;-84
2022/10/02 10:12:40;;;;;;;0.70;0.70;;;;;;;11.28;67.78;98351.44;4990188;28;20133;-85
2022/10/02 10:15:28;;;;;;;0.60;0.60;;;;;;;11.14;67.55;98347.59;4991805;28;20409;-85
2022/10/02 10:18:28;;;;;;;0.73;0.73;;;;;;;11.06;67.24;98352.47;4990838;28;20427;-84
2022/10/02 10:20:58;;;;;;;0.70;0.70;;;;;;;11.13;67.20;98354.91;4989674;28;20141;-85
2022/10/02 10:23:44;;;;;;;0.70;0.70;;;;;;;11.19;67.05;98344.94;4990092;28;20074;-83
2022/10/02 10:26:33;;;;;;;0.65;0.65;;;;;;;11.16;67.47;98343.56;4989386;28;20066;-86
2022/10/02 10:29:25;;;;;;;0.70;0.70;;;;;;;11.19;67.11;98340.38;4988217;28;20421;-86
2022/10/02 10:32:44;;;;;;;0.70;0.70;;;;;;;11.25;66.58;98338.47;4957643;28;20406;-83
2022/10/02 10:35:36;;;;;;;0.80;0.80;;;;;;;11.52;65.85;98321.25;4960301;28;20061;-84
2022/10/02 10:38:41;;;;;;;0.70;0.70;;;;;;;12.25;64.46;98324.56;4990444;28;20137;-82
2022/10/02 10:41:49;;;;;;;0.80;0.80;;;;;;;13.30;62.22;98320.25;4985559;28;20050;-82
2022/10/02 10:44:40;;;;;;;0.70;0.70;;;;;;;13.64;60.97;98323.03;4989054;28;20108;-83
2022/10/02 10:47:19;;;;;;;0.70;0.70;;;;;;;13.43;60.13;98321.53;4971908;28;20058;-83
2022/10/02 10:50:14;;;;;;;0.60;0.60;;;;;;;13.52;60.50;98329.88;4971348;28;20114;-83
2022/10/02 10:52:56;;;;;;;0.80;0.80;;;;;;;14.63;57.37;98324.66;4972131;28;20061;-83
2022/10/02 10:56:00;;;;;;;0.70;0.70;;;;;;;14.86;55.44;98314.09;4990664;28;20042;-84
2022/10/02 10:59:06;;;;;;;0.90;0.90;;;;;;;15.38;53.43;98320.53;4949490;28;20086;-86
2022/10/02 11:02:06;;;;;;;0.70;0.70;;;;;;;15.18;53.97;98299.88;4971652;28;20058;-85
2022/10/02 11:04:51;;;;;;;1.10;1.10;;;;;;;15.86;53.81;98319.63;4984747;28;20141;-84
2022/10/02 11:07:36;;;;;;;1.00;1.00;;;;;;;18.49;47.52;98312.06;4969401;28;20421;-85
2022/10/02 11:10:20;;;;;;;0.60;0.60;;;;;;;18.15;47.10;98303.34;4967342;28;20416;-84
2022/10/02 11:12:52;;;;;;;0.60;0.60;;;;;;;17.84;47.94;98300.53;4969217;28;20410;-86
2022/10/02 11:15:58;;;;;;;0.60;0.60;;;;;;;17.19;48.14;98300.88;4976856;28;20046;-85
2022/10/02 11:18:43;;;;;;;;;;;;;;;15.72;52.09;98303.22;4986374;28;20054;-84
2022/10/02 11:21:27;;;;;;;0.60;0.60;;;;;;;15.23;52.54;98301.72;4973213;28;20450;-86
2022/10/02 11:24:06;;;;;;;0.60;0.60;;;;;;;14.58;55.38;98308.44;4988662;28;20056;-85
2022/10/02 11:26:52;;;;;;;0.60;0.60;;;;;;;14.38;55.71;98304.00;4986791;28;20061;-84
2022/10/02 11:29:33;;;;;;;0.60;0.60;;;;;;;14.30;55.71;98301.88;4974660;28;20575;-85
2022/10/02 11:32:08;;;;;;;0.60;0.60;;;;;;;14.35;55.32;98309.97;4991178;28;20157;-85
2022/10/02 11:35:08;;;;;;;0.50;0.50;;;;;;;14.71;55.18;98301.50;4990072;28;20116;-85
2022/10/02 11:37:52;;;;;;;0.70;0.70;;;;;;;14.72;54.24;98298.50;4954300;28;20533;-86
2022/10/02 11:40:41;;;;;;;0.60;0.60;;;;;;;14.88;54.90;98290.97;4966591;28;20058;-87
2022/10/02 11:43:16;;;;;;;0.80;0.80;;;;;;;15.64;53.99;98290.25;4970748;28;20067;-84
2022/10/02 11:46:12;;;;;;;0.90;0.90;;;;;;;16.88;50.65;98294.13;4970374;28;20057;-86
2022/10/02 11:49:05;;;;;;;0.75;0.75;;;;;;;16.88;49.34;98290.59;4967277;28;20058;-85
2022/10/02 11:51:54;;;;;;;1.00;1.00;;;;;;;18.30;46.87;98283.03;4970464;28;20556;-86
2022/10/02 11:54:32;;;;;;;0.52;0.52;;;;;;;17.92;46.21;98288.88;4969742;28;20058;-84
2022/10/02 11:57:37;;;;;;;0.70;0.70;;;;;;;16.97;48.14;98282.53;4967701;28;20057;-84
2022/10/02 12:00:13;;;;;;;1.00;1.00;;;;;;;18.99;45.59;98279.81;4970616;28;20058;-85
2022/10/02 12:03:06;;;;;;;1.00;1.00;;;;;;;20.51;42.20;98269.03;4970275;28;20093;-84
2022/10/02 12:05:53;;;;;;;0.90;0.90;;;;;;;21.26;39.66;98263.81;4964304;28;20134;-84
2022/10/02 12:08:33;;;;;;;0.90;0.90;;;;;;;20.53;40.37;98264.00;4964691;28;20063;-83
2022/10/02 12:11:21;;;;;;;0.90;0.90;;;;;;;20.58;40.53;98261.09;4969169;28;20607;-83
2022/10/02 12:13:58;;;;;;;0.40;0.40;;;;;;;19.08;43.28;98255.22;4975394;28;20429;-83
2022/10/02 12:16:38;;;;;;;0.40;0.40;;;;;;;17.29;46.14;98263.31;4992331;28;20082;-85
2022/10/02 12:19:20;;;;;;;0.40;0.40;;;;;;;16.32;49.06;98248.88;4993124;28;20061;-84
2022/10/02 12:28:10;;;;;;;0.60;0.60;;;;;;;16.41;50.98;98238.91;4989947;28;20092;-84
2022/10/02 12:31:16;;;;;;;0.70;0.70;;;;;;;17.72;48.05;98232.03;4975190;28;20535;-81
2022/10/02 12:34:08;;;;;;;0.45;0.45;;;;;;;17.20;48.91;98231.63;4952007;29;20051;-83
2022/10/02 12:36:55;;;;;;;0.45;0.45;;;;;;;16.71;49.75;98225.81;4950723;29;20059;-85
2022/10/02 12:39:30;;;;;;;0.50;0.50;;;;;;;16.61;49.79;98232.28;4950951;29;20055;-85
2022/10/02 12:42:05;;;;;;;0.50;0.50;;;;;;;16.45;49.42;98220.84;4952437;29;20482;-84
2022/10/02 12:44:57;;;;;;;0.40;0.40;;;;;;;15.90;50.89;98215.34;4935301;29;20170;-85
2022/10/02 12:47:29;;;;;;;0.50;0.50;;;;;;;15.67;51.91;98208.88;4950520;29;20059;-85
2022/10/02 12:50:20;;;;;;;0.40;0.40;;;;;;;15.47;52.58;98201.88;4950823;29;20051;-85
2022/10/02 12:53:15;;;;;;;0.60;0.60;;;;;;;15.84;51.88;98197.47;4948973;29;20472;-84
2022/10/02 12:56:00;;;;;;;0.60;0.60;;;;;;;16.15;51.15;98192.28;4950628;29;20063;-85
2022/10/02 12:58:42;;;;;;;0.60;0.60;;;;;;;16.58;50.10;98200.16;4933947;29;20153;-84
2022/10/02 13:01:33;;;;;;;0.50;0.50;;;;;;;16.49;50.52;98193.84;4949615;29;20054;-83
2022/10/02 13:04:39;;;;;;;0.50;0.50;;;;;;;16.29;50.58;98203.19;4971892;28;20054;-84